Flight Track Log - Related Links

Times and Time Zones

All times are in EDT time to prevent confusion due to time zone crossing. See the ACA91 flight status page for this flight to view local times or setup timezone preferences in your user account.


Time Position Orientation Groundspeed Altitude Reporting Facility
EDT Latitude Longitude Course Direction KTS MPH feet Rate Location/Type
Fri 07:23:05 PM -23.4198 -46.4287 73° East 194 223 3,700  Level FlightAware ADS-B
Fri 07:23:20 PM -23.4156 -46.4144 70° East 195 224 4,300 2,286 Climbing FlightAware ADS-B
Fri 07:23:26 PM -23.4138 -46.4099 65° Northeast 197 227 4,500 1,800 Climbing FlightAware ADS-B
Fri 07:23:30 PM -23.4114 -46.4057 55° Northeast 199 229 4,600  Climbing FlightAware ADS-B
Fri 07:23:31 PM -23.4136 -46.4095 65° Northeast 197 227 4,500 1,200 Descending FlightAware ADS-B
Fri 07:23:35 PM -23.4083 -46.4022 45° Northeast 201 231 4,700 2,667 Climbing FlightAware ADS-B
Fri 07:23:40 PM -23.4045 -46.3992 34° Northeast 203 234 4,900 2,400 Climbing FlightAware ADS-B
Fri 07:23:45 PM -23.4005 -46.3970 25° Northeast 204 235 5,100 2,182 Climbing FlightAware ADS-B
Fri 07:23:51 PM -23.3951 -46.3954 12° North 205 236 5,300 2,182 Climbing FlightAware ADS-B
Fri 07:23:56 PM -23.3903 -46.3950 North 205 236 5,500 1,500 Climbing FlightAware ADS-B
Fri 07:24:03 PM -23.3876 -46.3951 357° North 207 238 5,600 1,600 Climbing FlightAware ADS-B
Fri 07:24:11 PM -23.3753 -46.3985 North 205 236 5,900 1,667 Climbing FlightAware ADS-B
Fri 07:24:21 PM -23.3653 -46.4031 336° Northwest 235 270 6,100 545 Climbing FlightAware ADS-B
Fri 07:24:22 PM -23.3694 -46.4011 337° Northwest 229 264 6,000 857 Descending FlightAware ADS-B
Fri 07:24:35 PM -23.3522 -46.4090 341° North 253 291 6,300 1,714 Climbing FlightAware ADS-B
Fri 07:24:50 PM -23.3328 -46.4160 342° North 255 293 6,800 2,200 Climbing FlightAware ADS-B
Fri 07:25:05 PM -23.3167 -46.4219 341° North 259 298 7,400 1,579 Climbing FlightAware ADS-B
Fri 07:25:09 PM -23.3177 -46.4215 341° North 258 297 7,300 1,600 Descending FlightAware ADS-B
Fri 07:25:20 PM -23.2983 -46.4294 339° North 270 311 7,800 1,600 Climbing FlightAware ADS-B
Fri 07:25:24 PM -23.3001 -46.4286 339° North 270 311 7,700 2,250 Descending FlightAware ADS-B
Fri 07:25:36 PM -23.2808 -46.4367 340° North 276 318 8,400 2,400 Climbing FlightAware ADS-B
Fri 07:25:44 PM -23.2772 -46.4382 340° North 278 320 8,500 1,714 Climbing FlightAware ADS-B
Fri 07:25:50 PM -23.2628 -46.4440 340° North 283 326 8,800 1,111 Climbing FlightAware ADS-B
Fri 07:26:11 PM -23.2374 -46.4542 340° North 289 333 9,000 514 Climbing FlightAware ADS-B
Fri 07:26:25 PM -23.2182 -46.4620 340° North 294 338 9,100  Climbing FlightAware ADS-B
Fri 07:26:26 PM -23.2241 -46.4596 339° North 292 336 9,000 2,400 Descending FlightAware ADS-B
Fri 07:26:40 PM -23.1989 -46.4696 341° North 298 343 9,700 1,895 Climbing FlightAware ADS-B
Fri 07:26:45 PM -23.2002 -46.4691 340° North 298 343 9,600 2,167 Descending FlightAware ADS-B
Fri 07:27:16 PM -23.1529 -46.4882 340° North 312 359 11,000 2,341 Climbing FlightAware ADS-B
Fri 07:27:26 PM -23.1451 -46.4913 340° North 315 362 11,200 2,483 Climbing FlightAware ADS-B
Fri 07:27:45 PM -23.1110 -46.5054 340° North 322 371 12,200 2,308 Climbing FlightAware ADS-B
Fri 07:28:05 PM -23.0913 -46.5134 340° North 326 375 12,700 2,400 Climbing FlightAware ADS-B
Fri 07:28:15 PM -23.0689 -46.5225 340° North 328 377 13,400 2,700 Climbing FlightAware ADS-B
Fri 07:28:45 PM -23.0248 -46.5400 340° North 334 384 14,500 2,000 Climbing FlightAware ADS-B
Fri 07:29:15 PM -22.9802 -46.5580 340° North 346 398 15,400 1,548 Climbing FlightAware ADS-B
Fri 07:29:16 PM -22.9873 -46.5552 340° North 344 396 15,300 1,000 Descending FlightAware ADS-B
Fri 07:29:45 PM -22.9344 -46.5764 340° North 373 429 15,900 1,125 Climbing FlightAware ADS-B
Fri 07:29:48 PM -22.9399 -46.5742 340° North 371 427 15,900 1,000 Level FlightAware ADS-B
Fri 07:30:15 PM -22.8822 -46.5975 340° North 399 459 16,400 882 Climbing FlightAware ADS-B
Fri 07:30:22 PM -22.8832 -46.5971 339° North 401 461 16,400 1,400 Level FlightAware ADS-B
Fri 07:30:45 PM -22.8297 -46.6210 331° Northwest 411 473 17,100 1,455 Climbing FlightAware ADS-B (SDAM)
Fri 07:30:55 PM -22.8239 -46.6251 328° Northwest 411 473 17,200 2,100 Climbing FlightAware ADS-B
Fri 07:31:05 PM -22.8002 -46.6477 314° West 411 473 17,800 1,500 Climbing FlightAware ADS-B
Fri 07:31:07 PM -22.8077 -46.6394 317° Northwest 412 474 17,500 1,875 Descending FlightAware ADS-B
Fri 07:31:21 PM -22.7829 -46.6727 303° West 409 471 18,300 2,118 Climbing FlightAware ADS-B (SDAM)
Fri 07:31:24 PM -22.7869 -46.6660 304° West 409 471 18,100 1,941 Descending FlightAware ADS-B
Fri 07:31:55 PM -22.7490 -46.7310 302° West 418 481 19,400 2,108 Climbing FlightAware ADS-B
Fri 07:32:01 PM -22.7475 -46.7337 302° West 418 481 19,400 2,000 Level FlightAware ADS-B
Fri 07:32:25 PM -22.7172 -46.7864 303° West 422 486 20,400 2,000 Climbing FlightAware ADS-B
Fri 07:32:34 PM -22.7138 -46.7918 305° West 424 488 20,500 2,100 Climbing FlightAware ADS-B
Fri 07:32:45 PM -22.6905 -46.8193 319° Northwest 434 499 21,100 1,875 Climbing FlightAware ADS-B
Fri 07:32:50 PM -22.6919 -46.8179 316° Northwest 433 498 21,000 2,100 Descending FlightAware ADS-B
Fri 07:33:05 PM -22.6576 -46.8436 331° Northwest 443 510 21,800 2,143 Climbing FlightAware ADS-B
Fri 07:33:18 PM -22.6447 -46.8501 337° Northwest 448 516 22,000 1,800 Climbing FlightAware ADS-B
Fri 07:33:25 PM -22.6185 -46.8594 344° North 450 518 22,400 1,756 Climbing FlightAware ADS-B
Fri 07:33:59 PM -22.5631 -46.8777 343° North 455 524 23,200 1,680 Climbing FlightAware ADS-B
Fri 07:34:15 PM -22.5179 -46.8922 343° North 453 521 23,800 2,000 Climbing FlightAware ADS-B
Fri 07:34:44 PM -22.4571 -46.9114 344° North 462 532 24,700 1,395 Climbing FlightAware ADS-B
Fri 07:34:58 PM -22.4421 -46.9162 344° North 465 535 24,800 1,313 Climbing FlightAware ADS-B
Fri 07:35:16 PM -22.3929 -46.9318 344° North 468 539 25,400 1,548 Climbing FlightAware ADS-B (SDAM)
Fri 07:35:29 PM -22.3764 -46.9371 343° North 472 543 25,600 1,371 Climbing FlightAware ADS-B
Fri 07:35:51 PM -22.3172 -46.9561 344° North 477 549 26,200 1,200 Climbing FlightAware ADS-B (SDAM)
Fri 07:36:04 PM -22.3047 -46.9601 343° North 479 551 26,300 1,535 Climbing FlightAware ADS-B
Fri 07:36:34 PM -22.2276 -46.9847 344° North 480 552 27,300 1,610 Climbing FlightAware ADS-B
Fri 07:36:45 PM -22.2150 -46.9888 343° North 480 552 27,400 1,543 Climbing FlightAware ADS-B
Fri 07:37:09 PM -22.1674 -47.0041 344° North 475 547 28,200 2,057 Climbing FlightAware ADS-B
Fri 07:37:20 PM -22.1423 -47.0122 343° North 474 545 28,600 1,862 Climbing FlightAware ADS-B
Fri 07:38:07 PM -22.0316 -47.0477 344° North 467 537 30,000 913 Climbing FlightAware ADS-B (SDAM)
Fri 07:38:52 PM -21.9371 -47.0779 344° North 466 536 30,000  Level FlightAware ADS-B (SDAM)
Fri 07:39:37 PM -21.8444 -47.1073 344° North 463 533 30,000  Level FlightAware ADS-B (SDAM)
Fri 07:40:22 PM -21.7508 -47.1371 344° North 462 532 30,000  Level FlightAware ADS-B (SDAM)
Fri 07:41:07 PM -21.6590 -47.1664 344° North 460 529 30,000  Level FlightAware ADS-B (SDAM)
Fri 07:41:52 PM -21.5667 -47.1957 344° North 459 528 30,000  Level FlightAware ADS-B (SDAM)
Fri 07:42:38 PM -21.4751 -47.2248 344° North 457 526 30,000  Level FlightAware ADS-B (SDAM)
Fri 07:43:23 PM -21.3830 -47.2539 344° North 458 527 30,000  Level FlightAware ADS-B (SDAM)
Fri 07:44:08 PM -21.2880 -47.2768 352° North 471 542 30,000  Level FlightAware ADS-B (SDAM)
Fri 07:44:53 PM -21.1903 -47.2914 353° North 474 545 30,000  Level FlightAware ADS-B (SDAM)
Fri 07:45:38 PM -21.0909 -47.3056 353° North 474 545 30,000  Level FlightAware ADS-B (SDAM)
Fri 07:46:23 PM -20.9935 -47.3197 353° North 475 547 30,000  Level FlightAware ADS-B (SDAM)
Fri 07:47:08 PM -20.8947 -47.3340 353° North 475 547 30,000  Level FlightAware ADS-B (SDAM)
Fri 07:47:54 PM -20.7991 -47.3488 352° North 476 548 30,000  Level FlightAware ADS-B (SDAM)
Fri 07:48:38 PM -20.6972 -47.3649 352° North 477 549 30,000  Level FlightAware ADS-B (SDAM)
Fri 07:49:24 PM -20.5989 -47.3803 352° North 481 554 30,000  Level FlightAware ADS-B (SDAM)
Fri 07:50:09 PM -20.4980 -47.3954 353° North 484 557 30,000  Level FlightAware ADS-B (SDAM)
Fri 07:50:54 PM -20.3964 -47.4104 352° North 486 559 30,000  Level FlightAware ADS-B (SDAM)
Fri 07:51:39 PM -20.2958 -47.4255 352° North 487 560 30,000  Level FlightAware ADS-B (SDAM)
Fri 07:52:24 PM -20.1945 -47.4408 352° North 487 560 30,000  Level FlightAware ADS-B (SDAM)
Fri 07:53:09 PM -20.0942 -47.4557 352° North 488 562 30,000  Level FlightAware ADS-B (SDAM)
Fri 07:53:55 PM -19.9941 -47.4708 353° North 488 562 30,000  Level FlightAware ADS-B (SDAM)
Fri 07:54:40 PM -19.8906 -47.4863 352° North 488 562 30,000  Level FlightAware ADS-B (SDAM)
Fri 07:55:22 PM -19.7971 -47.5004 352° North 488 562 30,000  Level FlightAware ADS-B (SDAM)
Fri 07:55:50 PM -19.7346 -47.5098 352° North 488 562 30,000  Level FlightAware ADS-B (SDAM)
Fri 07:56:37 PM -19.6322 -47.5248 353° North 488 562 30,000  Level FlightAware ADS-B (SDAM)
Fri 08:16:29 PM -16.9578 -47.9064 353° North 485 558 30,000  Level FlightAware ADS-B
Fri 08:16:59 PM -16.8927 -47.9155 353° North 485 558 30,000  Level FlightAware ADS-B
Fri 08:17:29 PM -16.8249 -47.9249 353° North 485 558 30,000  Level FlightAware ADS-B
Fri 08:17:59 PM -16.7574 -47.9327 355° North 486 559 30,000  Level FlightAware ADS-B
Fri 08:18:29 PM -16.6891 -47.9384 356° North 487 560 30,000  Level FlightAware ADS-B
Fri 08:18:59 PM -16.6255 -47.9432 356° North 487 560 30,000  Level FlightAware ADS-B
Fri 08:19:45 PM -16.5196 -47.9512 356° North 486 559 30,000  Level FlightAware ADS-B
Fri 08:20:15 PM -16.4512 -47.9563 356° North 486 559 30,000  Level FlightAware ADS-B
Fri 08:20:45 PM -16.3840 -47.9615 356° North 486 559 30,000  Level FlightAware ADS-B
Fri 08:21:15 PM -16.3156 -47.9666 356° North 485 558 30,000  Level FlightAware ADS-B
Fri 08:21:45 PM -16.2484 -47.9729 355° North 483 556 30,000  Level FlightAware ADS-B
Fri 08:22:15 PM -16.1826 -47.9810 353° North 482 555 30,000  Level FlightAware ADS-B
Fri 08:22:45 PM -16.1171 -47.9895 353° North 480 552 30,000  Level FlightAware ADS-B
Fri 08:23:15 PM -16.0488 -47.9985 353° North 479 551 30,000  Level FlightAware ADS-B
Fri 08:23:45 PM -15.9827 -48.0073 353° North 478 550 30,000  Level FlightAware ADS-B
Fri 08:24:16 PM -15.9158 -48.0162 352° North 474 545 30,000  Level FlightAware ADS-B
Fri 08:24:45 PM -15.8551 -48.0332 340° North 464 534 30,000  Level FlightAware ADS-B
Fri 08:25:15 PM -15.7963 -48.0613 334° Northwest 460 529 30,000  Level FlightAware ADS-B
Fri 08:25:46 PM -15.7381 -48.0921 333° Northwest 458 527 30,000  Level FlightAware ADS-B
Fri 08:26:16 PM -15.6808 -48.1230 333° Northwest 458 527 30,000  Level FlightAware ADS-B
Fri 08:26:46 PM -15.6248 -48.1532 333° Northwest 458 527 30,000  Level FlightAware ADS-B
Fri 08:27:16 PM -15.5671 -48.1841 333° Northwest 458 527 30,000  Level FlightAware ADS-B
Fri 08:27:46 PM -15.5096 -48.2147 333° Northwest 458 527 30,000  Level FlightAware ADS-B
Fri 08:28:16 PM -15.4551 -48.2436 333° Northwest 458 527 30,000  Level FlightAware ADS-B
Fri 08:28:46 PM -15.3964 -48.2746 333° Northwest 457 526 30,000  Level FlightAware ADS-B
Fri 08:29:16 PM -15.3390 -48.3051 333° Northwest 457 526 30,000  Level FlightAware ADS-B
Fri 08:29:47 PM -15.2822 -48.3352 333° Northwest 457 526 30,000  Level FlightAware ADS-B
Fri 08:30:16 PM -15.2259 -48.3650 333° Northwest 457 526 30,000  Level FlightAware ADS-B
Fri 08:30:46 PM -15.1703 -48.3945 333° Northwest 457 526 30,000  Level FlightAware ADS-B
Fri 08:31:17 PM -15.1107 -48.4258 333° Northwest 457 526 30,000  Level FlightAware ADS-B
Fri 08:31:47 PM -15.0552 -48.4552 333° Northwest 457 526 30,000  Level FlightAware ADS-B
Fri 08:32:18 PM -14.9988 -48.4851 333° Northwest 457 526 30,000  Level FlightAware ADS-B
Fri 08:32:47 PM -14.9423 -48.5149 333° Northwest 457 526 30,000  Level FlightAware ADS-B
Fri 08:33:18 PM -14.8838 -48.5458 333° Northwest 457 526 30,000  Level FlightAware ADS-B
Fri 08:33:47 PM -14.8299 -48.5742 333° Northwest 457 526 30,000  Level FlightAware ADS-B
Fri 08:34:17 PM -14.7720 -48.6048 333° Northwest 458 527 30,000  Level FlightAware ADS-B
Fri 08:34:47 PM -14.7162 -48.6341 333° Northwest 459 528 30,000  Level FlightAware ADS-B
Fri 08:35:18 PM -14.6559 -48.6659 333° Northwest 461 531 30,000  Level FlightAware ADS-B
Fri 08:35:47 PM -14.6033 -48.6935 333° Northwest 463 533 30,000  Level FlightAware ADS-B
Fri 08:36:18 PM -14.5399 -48.7267 333° Northwest 465 535 30,000  Level FlightAware ADS-B
Fri 08:36:48 PM -14.4826 -48.7570 333° Northwest 465 535 30,000  Level FlightAware ADS-B
Fri 08:37:17 PM -14.4258 -48.7868 334° Northwest 466 536 30,000  Level FlightAware ADS-B
Fri 08:37:49 PM -14.3663 -48.8181 333° Northwest 466 536 30,000  Level FlightAware ADS-B
Fri 08:38:18 PM -14.3112 -48.8471 333° Northwest 465 535 30,000  Level FlightAware ADS-B
Fri 08:38:43 PM -14.3041 -48.8508 334° Northwest 465 535 30,000 21 Level FlightAware ADS-B
Fri 11:49:58 PM 7.8043 -59.2833 322° Northwest 467 537 34,000 21 Climbing FlightAware ADS-B (POS / TTPP)
Fri 11:50:32 PM 7.8645 -59.3305 322° Northwest 467 537 34,000  Level FlightAware ADS-B (POS / TTPP)
Fri 11:51:16 PM 7.9384 -59.3885 322° Northwest 465 535 34,000  Level FlightAware ADS-B (POS / TTPP)
Fri 11:51:49 PM 7.9987 -59.4359 322° Northwest 465 535 34,000  Level FlightAware ADS-B (POS / TTPP)
Fri 11:52:19 PM 8.0469 -59.4738 322° Northwest 465 535 34,000  Level FlightAware ADS-B (POS / TTPP)
Fri 11:52:52 PM 8.1037 -59.5184 322° Northwest 464 534 34,000  Level FlightAware ADS-B (POS / TTPP)
Fri 11:53:52 PM 8.2061 -59.5990 322° Northwest 463 533 34,000  Level FlightAware ADS-B (POS / TTPP)
Fri 11:54:22 PM 8.2574 -59.6394 322° Northwest 463 533 34,000  Level FlightAware ADS-B (POS / TTPP)
Fri 11:54:50 PM 8.3048 -59.6767 322° Northwest 463 533 34,000  Level FlightAware ADS-B (POS / TTPP)
Fri 11:55:22 PM 8.3587 -59.7191 322° Northwest 463 533 34,000  Level FlightAware ADS-B (POS / TTPP)
Fri 11:55:50 PM 8.4069 -59.7571 322° Northwest 463 533 34,000  Level FlightAware ADS-B (POS / TTPP)
Fri 11:56:20 PM 8.4562 -59.7959 322° Northwest 463 533 34,000  Level FlightAware ADS-B (POS / TTPP)
Fri 11:56:48 PM 8.5054 -59.8347 322° Northwest 464 534 34,000  Level FlightAware ADS-B (POS / TTPP)
Fri 11:57:16 PM 8.5506 -59.8704 322° Northwest 464 534 34,000  Level FlightAware ADS-B (POS / TTPP)
Fri 11:57:47 PM 8.5940 -59.9047 322° Northwest 464 534 34,000  Level FlightAware ADS-B (POS / TTPP)
Fri 11:59:01 PM 8.7298 -60.0118 322° Northwest 463 533 34,000  Level FlightAware ADS-B (POS / TTPP)
Fri 11:59:30 PM 8.7800 -60.0514 322° Northwest 463 533 34,000  Level FlightAware ADS-B (POS / TTPP)
Sat 12:00:03 AM 8.8352 -60.0951 322° Northwest 462 532 34,000  Level FlightAware ADS-B (POS / TTPP)
Sat 12:00:55 AM 8.9235 -60.1648 322° Northwest 461 531 34,000  Level FlightAware ADS-B (POS / TTPP)
Sat 12:01:22 AM 8.9685 -60.2004 322° Northwest 460 529 34,000  Level FlightAware ADS-B (POS / TTPP)
Sat 12:01:54 AM 9.0226 -60.2433 322° Northwest 459 528 34,000  Level FlightAware ADS-B (POS / TTPP)
Sat 12:02:21 AM 9.0695 -60.2783 325° Northwest 460 529 34,000  Level FlightAware ADS-B (POS / TTPP)
Sat 12:03:23 AM 9.1789 -60.3509 328° Northwest 459 528 34,000  Level FlightAware ADS-B (POS / TTPP)
Sat 12:03:55 AM 9.2352 -60.3867 328° Northwest 459 528 34,000  Level FlightAware ADS-B (POS / TTPP)
Sat 12:04:19 AM 9.2804 -60.4151 328° Northwest 460 529 34,000  Level FlightAware ADS-B (POS / TTPP)
Sat 12:05:25 AM 9.3971 -60.4887 328° Northwest 460 529 34,000  Level FlightAware ADS-B (POS / TTPP)
Sat 12:06:54 AM 9.5604 -60.5925 328° Northwest 460 529 34,000  Level FlightAware ADS-B (POS / TTPP)
Sat 12:07:41 AM 9.6443 -60.6461 328° Northwest 460 529 34,000  Level FlightAware ADS-B (POS / TTPP)
Sat 12:08:11 AM 9.6988 -60.6810 328° Northwest 460 529 34,000  Level FlightAware ADS-B (POS / TTPP)
Sat 12:08:39 AM 9.7503 -60.7138 328° Northwest 460 529 34,000  Level FlightAware ADS-B (POS / TTPP)
Sat 12:09:11 AM 9.8070 -60.7501 328° Northwest 461 531 34,000  Level FlightAware ADS-B (POS / TTPP)
Sat 12:09:40 AM 9.8602 -60.7840 328° Northwest 461 531 34,000  Level FlightAware ADS-B (POS / TTPP)
Sat 12:10:09 AM 9.9121 -60.8172 328° Northwest 462 532 34,000  Level FlightAware ADS-B (POS / TTPP)
Sat 12:10:39 AM 9.9681 -60.8531 328° Northwest 463 533 34,000  Level FlightAware ADS-B (POS / TTPP)
Sat 12:11:27 AM 10.0533 -60.9076 328° Northwest 463 533 34,000  Level FlightAware ADS-B (POS / TTPP)
Sat 12:11:52 AM 10.0994 -60.9370 328° Northwest 463 533 34,000  Level FlightAware ADS-B (POS / TTPP)
Sat 12:12:24 AM 10.1587 -60.9751 328° Northwest 464 534 34,000  Level FlightAware ADS-B (POS / TTPP)
Sat 12:12:56 AM 10.2166 -61.0122 328° Northwest 464 534 34,000  Level FlightAware ADS-B (POS / TTPP)
Sat 12:13:26 AM 10.2719 -61.0476 328° Northwest 464 534 34,000  Level FlightAware ADS-B (POS / TTPP)
Sat 12:13:55 AM 10.3244 -61.0813 328° Northwest 463 533 34,000  Level FlightAware ADS-B (POS / TTPP)
Sat 12:14:25 AM 10.3782 -61.1158 328° Northwest 463 533 34,000  Level FlightAware ADS-B (POS / TTPP)
Sat 12:14:58 AM 10.4374 -61.1539 328° Northwest 462 532 34,000  Level FlightAware ADS-B (POS / TTPP)
Sat 12:15:25 AM 10.4864 -61.1853 328° Northwest 460 529 34,000  Level FlightAware ADS-B (POS / TTPP)
Sat 12:15:55 AM 10.5410 -61.2203 328° Northwest 458 527 34,000  Level FlightAware ADS-B (POS / TTPP)
Sat 12:16:42 AM 10.6252 -61.2745 328° Northwest 456 525 34,000  Level FlightAware ADS-B (POS / TTPP)
Sat 12:17:42 AM 10.7322 -61.3433 328° Northwest 454 522 34,000  Level FlightAware ADS-B (POS / TTPP)
Sat 12:18:13 AM 10.7866 -61.3784 328° Northwest 454 522 34,000  Level FlightAware ADS-B (POS / TTPP)
Sat 12:18:41 AM 10.8374 -61.4112 328° Northwest 453 521 34,000  Level FlightAware ADS-B (POS / TTPP)
Sat 12:19:10 AM 10.8876 -61.4436 328° Northwest 453 521 34,000  Level FlightAware ADS-B (POS / TTPP)
Sat 12:19:40 AM 10.9374 -61.4756 328° Northwest 453 521 34,000  Level FlightAware ADS-B (POS / TTPP)
Sat 12:20:13 AM 10.9994 -61.5156 328° Northwest 453 521 34,000  Level FlightAware ADS-B (POS / TTPP)
Sat 12:20:40 AM 11.0468 -61.5462 328° Northwest 453 521 34,000  Level FlightAware ADS-B (POS / TTPP)
Sat 12:21:01 AM 11.0897 -61.5739 327° Northwest 453 521 34,000  Level FlightAware ADS-B (KALB)
Sat 12:21:11 AM 11.1037 -61.5830 328° Northwest 453 521 34,000  Level FlightAware ADS-B (POS / TTPP)
Sat 12:21:39 AM 11.1498 -61.6128 328° Northwest 453 521 34,000  Level FlightAware ADS-B (POS / TTPP)
Sat 12:21:48 AM 11.1718 -61.6270 328° Northwest 453 521 34,000  Level FlightAware ADS-B (KALB)
Sat 12:22:10 AM 11.2069 -61.6497 328° Northwest 452 520 34,000  Level FlightAware ADS-B (POS / TTPP)
Sat 12:22:44 AM 11.2676 -61.6890 328° Northwest 453 521 34,000  Level FlightAware ADS-B (POS / TTPP)
Sat 12:23:04 AM 11.3067 -61.7142 328° Northwest 454 522 34,000  Level FlightAware ADS-B (KALB)
Sat 12:23:36 AM 11.3593 -61.7482 328° Northwest 454 522 34,000  Level FlightAware ADS-B (POS / TTPP)
Sat 12:23:43 AM 11.3762 -61.7592 327° Northwest 455 524 34,000  Level FlightAware ADS-B (KALB)
Sat 12:25:07 AM 11.5227 -61.8541 328° Northwest 457 526 34,000  Level FlightAware ADS-B (POS / TTPP)

Login

Don't have an account? Register now (free) for customized features, flight alerts, and more!